Time;durP1;ratioP1;P1;durP2;ratioP2;P2;SDS_P1;SDS_P2;PMS_P1;PMS_P2;Temp;Humidity;BMP_temperature;BMP_pressure;BME280_temperature;BME280_humidity;BME280_pressure;Samples;Min_cycle;Max_cycle;Signal;HPM_P1;HPM_P2
2023/10/16 00:01:38;;;;;;;5.93;3.43;;;2.10;51.00;;;;;;4997065;28;47437;-81
2023/10/16 00:04:05;;;;;;;3.83;3.08;;;2.10;50.90;;;;;;4997082;28;46657;-81
2023/10/16 00:06:30;;;;;;;7.22;3.00;;;2.10;51.10;;;;;;4999579;28;46619;-81
2023/10/16 00:09:14;;;;;;;5.40;2.83;;;2.10;51.10;;;;;;4998973;28;47244;-82
2023/10/16 00:11:40;;;;;;;6.47;3.63;;;2.00;51.10;;;;;;4998630;28;47150;-81
2023/10/16 00:17:00;;;;;;;6.50;3.38;;;2.00;51.00;;;;;;4986281;28;46481;-82
2023/10/16 00:19:26;;;;;;;6.50;3.20;;;2.00;51.10;;;;;;5000177;28;46368;-80
2023/10/16 00:21:57;;;;;;;9.00;3.40;;;1.90;51.10;;;;;;4999698;28;47059;-80
2023/10/16 00:24:22;;;;;;;4.03;2.85;;;1.90;51.10;;;;;;4999461;28;46978;-82
2023/10/16 00:26:51;;;;;;;6.27;3.63;;;1.90;51.20;;;;;;4998380;28;46558;-80
2023/10/16 00:29:19;;;;;;;6.67;3.53;;;1.90;51.20;;;;;;4997409;28;46506;-82
2023/10/16 00:31:46;;;;;;;7.10;3.27;;;1.90;51.20;;;;;;4999604;28;46595;-81
2023/10/16 00:34:19;;;;;;;6.70;3.13;;;1.80;52.40;;;;;;4999395;28;46749;-82
2023/10/16 00:36:45;;;;;;;8.88;3.40;;;1.80;51.10;;;;;;5000601;28;45894;-83
2023/10/16 00:39:14;;;;;;;6.50;3.73;;;1.80;51.40;;;;;;5000099;28;46213;-80
2023/10/16 00:41:46;;;;;;;10.43;3.30;;;1.80;51.30;;;;;;4998465;28;48138;-81
2023/10/16 00:44:14;;;;;;;5.53;3.30;;;1.80;51.30;;;;;;4998873;28;46574;-82
2023/10/16 00:46:44;;;;;;;6.45;3.55;;;1.80;51.40;;;;;;4997312;28;46411;-82
2023/10/16 00:49:13;;;;;;;6.63;4.43;;;1.80;51.50;;;;;;5000960;28;47615;-81
2023/10/16 00:51:41;;;;;;;10.10;3.13;;;1.80;51.40;;;;;;4998569;28;48372;-82
2023/10/16 00:54:28;;;;;;;5.38;3.17;;;1.80;51.40;;;;;;4998438;28;46449;-82
2023/10/16 00:56:57;;;;;;;8.00;3.38;;;1.80;51.40;;;;;;4997492;28;47057;-83
2023/10/16 00:59:23;;;;;;;6.28;3.60;;;1.80;51.40;;;;;;4998891;28;46492;-83
2023/10/16 01:04:35;;;;;;;6.18;3.72;;;1.80;51.40;;;;;;5000766;28;46380;-83
2023/10/16 01:07:01;;;;;;;6.15;3.20;;;1.70;51.40;;;;;;4999296;28;46690;-83
2023/10/16 01:09:33;;;;;;;6.57;3.83;;;1.70;51.50;;;;;;4998546;28;46042;-80
2023/10/16 01:11:59;;;;;;;5.15;3.42;;;1.70;51.60;;;;;;4997051;28;48568;-82
2023/10/16 01:14:25;;;;;;;6.43;3.43;;;1.70;51.50;;;;;;4998912;28;46516;-79
2023/10/16 01:16:52;;;;;;;5.50;3.27;;;1.70;51.60;;;;;;4997614;28;46387;-81
2023/10/16 01:19:19;;;;;;;7.18;3.28;;;1.70;51.60;;;;;;4995366;28;46497;-81
2023/10/16 01:21:46;;;;;;;5.57;2.80;;;1.70;51.60;;;;;;4995587;28;46781;-80
2023/10/16 01:24:12;;;;;;;6.32;3.40;;;1.70;51.60;;;;;;4995959;28;46800;-80
2023/10/16 01:26:42;;;;;;;5.85;3.53;;;1.60;51.50;;;;;;4997135;28;46444;-81
2023/10/16 01:29:09;;;;;;;7.70;3.05;;;1.70;51.40;;;;;;4999276;28;46884;-83
2023/10/16 01:31:38;;;;;;;11.20;3.47;;;1.70;51.30;;;;;;4998769;28;46426;-81
2023/10/16 01:34:10;;;;;;;5.03;3.63;;;1.80;51.40;;;;;;4999134;28;46961;-81
2023/10/16 01:36:36;;;;;;;5.15;3.25;;;1.70;51.30;;;;;;5001331;28;46485;-81
2023/10/16 01:39:07;;;;;;;5.53;3.10;;;1.70;51.40;;;;;;5002806;28;46965;-81
2023/10/16 01:41:34;;;;;;;6.60;3.30;;;1.70;51.60;;;;;;5001498;28;47028;-81
2023/10/16 01:44:07;;;;;;;6.50;3.25;;;1.70;51.60;;;;;;5001094;28;47249;-82
2023/10/16 01:46:33;;;;;;;5.63;3.13;;;1.60;51.60;;;;;;5002166;28;46741;-78
2023/10/16 01:49:01;;;;;;;7.60;3.33;;;1.60;51.60;;;;;;4999153;28;46413;-78
2023/10/16 01:51:29;;;;;;;4.38;2.70;;;1.50;51.60;;;;;;5013638;28;46744;-80
2023/10/16 01:53:55;;;;;;;4.80;3.15;;;1.50;51.70;;;;;;5000158;28;46364;-79
2023/10/16 01:56:22;;;;;;;6.43;3.27;;;1.50;51.90;;;;;;5001393;28;46362;-82
2023/10/16 01:58:52;;;;;;;5.05;2.50;;;1.40;52.00;;;;;;5002199;28;46462;-82
2023/10/16 02:01:19;;;;;;;5.65;2.90;;;1.40;52.20;;;;;;5001592;28;46446;-81
2023/10/16 02:03:49;;;;;;;4.45;2.70;;;1.40;52.40;;;;;;4990058;28;46350;-82
2023/10/16 02:06:15;;;;;;;4.38;2.70;;;1.40;52.30;;;;;;5003675;28;46431;-81
2023/10/16 02:08:46;;;;;;;4.53;2.67;;;1.40;52.20;;;;;;5003122;28;46397;-81
2023/10/16 02:11:12;;;;;;;4.80;2.90;;;1.40;52.20;;;;;;5002609;28;46545;-82
2023/10/16 02:13:41;;;;;;;4.43;2.83;;;1.40;52.20;;;;;;5003205;28;46541;-81
2023/10/16 02:16:12;;;;;;;3.58;2.65;;;1.40;52.20;;;;;;5003552;28;46495;-82
2023/10/16 02:18:42;;;;;;;6.77;2.63;;;1.30;52.20;;;;;;5001685;28;46562;-82
2023/10/16 02:21:11;;;;;;;8.98;2.78;;;1.30;52.20;;;;;;5002318;28;49020;-82
2023/10/16 02:23:37;;;;;;;5.40;2.90;;;1.30;52.20;;;;;;5003706;28;46511;-82
2023/10/16 02:26:06;;;;;;;6.40;3.30;;;1.30;52.30;;;;;;5002284;28;46487;-81
2023/10/16 02:28:32;;;;;;;6.85;2.72;;;1.30;52.20;;;;;;5003100;28;46492;-81
2023/10/16 02:31:13;;;;;;;5.95;3.17;;;1.30;52.20;;;;;;5004575;28;46498;-82
2023/10/16 02:33:46;;;;;;;8.93;3.15;;;1.30;52.20;;;;;;5005401;28;46595;-81
2023/10/16 02:36:15;;;;;;;4.63;2.85;;;1.20;52.10;;;;;;5004156;28;46336;-82
2023/10/16 02:38:44;;;;;;;4.35;2.70;;;1.30;52.20;;;;;;4999050;28;46747;-82
2023/10/16 02:41:10;;;;;;;5.75;2.95;;;1.30;52.20;;;;;;5000851;28;48037;-81
2023/10/16 02:43:41;;;;;;;4.50;3.17;;;1.30;52.20;;;;;;5001958;28;46143;-82
2023/10/16 02:46:11;;;;;;;11.05;3.05;;;1.30;52.20;;;;;;5002596;28;46621;-83
2023/10/16 02:48:37;;;;;;;4.85;2.55;;;1.20;52.20;;;;;;5009246;28;46608;-84
2023/10/16 02:51:04;;;;;;;4.05;3.03;;;1.20;52.20;;;;;;5008467;28;46389;-81
2023/10/16 02:53:30;;;;;;;10.18;3.40;;;1.20;52.20;;;;;;5010359;28;45988;-79
2023/10/16 02:56:03;;;;;;;6.60;3.10;;;1.20;52.20;;;;;;5004200;28;46432;-79
2023/10/16 02:58:29;;;;;;;4.65;2.55;;;1.20;52.30;;;;;;5005052;28;46590;-82
2023/10/16 03:00:55;;;;;;;12.02;3.20;;;1.10;52.30;;;;;;5004089;28;47222;-82
2023/10/16 03:03:26;;;;;;;3.95;2.50;;;1.10;52.40;;;;;;5007910;28;46398;-84
2023/10/16 03:05:53;;;;;;;6.13;3.10;;;1.10;52.40;;;;;;5005130;28;46371;-83
2023/10/16 03:08:20;;;;;;;8.50;3.10;;;1.10;52.50;;;;;;5005049;28;46860;-84
2023/10/16 03:10:46;;;;;;;7.53;3.15;;;1.10;52.40;;;;;;5003702;28;46356;-82
2023/10/16 03:13:14;;;;;;;5.03;2.80;;;1.00;52.30;;;;;;5004692;28;46091;-81
2023/10/16 03:15:46;;;;;;;5.78;2.95;;;1.00;52.40;;;;;;5002364;28;46369;-83
2023/10/16 03:18:23;;;;;;;6.85;2.88;;;1.00;52.40;;;;;;5004046;28;46580;-82
2023/10/16 03:21:01;;;;;;;5.00;2.92;;;1.00;52.40;;;;;;4999885;28;48295;-80
2023/10/16 03:23:28;;;;;;;3.58;2.17;;;1.00;52.40;;;;;;5001680;28;46410;-81
2023/10/16 03:25:59;;;;;;;3.30;2.45;;;1.00;52.50;;;;;;5000487;28;46583;-82
2023/10/16 03:28:26;;;;;;;5.78;3.10;;;1.00;52.50;;;;;;5004305;28;46292;-82
2023/10/16 03:30:52;;;;;;;5.78;2.85;;;1.00;52.40;;;;;;5001965;28;46585;-81
2023/10/16 03:33:18;;;;;;;3.90;2.63;;;0.90;52.50;;;;;;5002409;28;46424;-81
2023/10/16 03:35:47;;;;;;;3.38;2.33;;;0.90;52.70;;;;;;5004268;28;47855;-81
2023/10/16 03:38:24;;;;;;;3.60;2.42;;;0.90;52.60;;;;;;5002858;28;46435;-82
2023/10/16 03:40:51;;;;;;;4.80;2.65;;;0.90;52.60;;;;;;5000979;28;48276;-79
2023/10/16 03:43:19;;;;;;;4.10;2.25;;;0.90;52.60;;;;;;5003284;28;46398;-80
2023/10/16 03:45:44;;;;;;;4.20;2.33;;;0.90;52.70;;;;;;5000644;28;46673;-82
2023/10/16 03:48:10;;;;;;;3.50;2.20;;;0.90;52.60;;;;;;5002619;28;45902;-82
2023/10/16 03:50:42;;;;;;;4.45;2.40;;;0.80;52.50;;;;;;5002218;28;47307;-82
2023/10/16 03:53:08;;;;;;;5.70;3.67;;;0.80;52.50;;;;;;5000337;28;45992;-82
2023/10/16 03:55:44;;;;;;;4.03;2.83;;;0.80;52.40;;;;;;5001880;28;46299;-81
2023/10/16 03:58:13;;;;;;;5.07;3.15;;;0.90;52.50;;;;;;5001827;28;46507;-80
2023/10/16 04:00:56;;;;;;;5.85;3.58;;;0.90;52.50;;;;;;4999881;28;47635;-81
2023/10/16 04:03:23;;;;;;;8.73;4.07;;;0.90;52.50;;;;;;5003660;28;46562;-81
2023/10/16 04:05:49;;;;;;;7.40;4.03;;;0.90;52.60;;;;;;4999445;28;46596;-81
2023/10/16 04:08:18;;;;;;;6.00;3.22;;;0.90;52.70;;;;;;5000170;28;46731;-81
2023/10/16 04:10:46;;;;;;;6.90;4.18;;;0.90;52.70;;;;;;4999988;28;46444;-81
2023/10/16 04:13:16;;;;;;;8.13;4.35;;;0.90;52.60;;;;;;5001258;28;46432;-82
2023/10/16 04:21:09;;;;;;;4.75;3.38;;;1.00;52.40;;;;;;5003966;28;46154;-80
2023/10/16 04:31:55;;;;;;;7.18;4.90;;;0.90;52.40;;;;;;5007360;28;46484;-79
2023/10/16 04:42:49;;;;;;;6.40;3.53;;;0.80;52.50;;;;;;4998660;28;47300;-84
2023/10/16 04:50:30;;;;;;;8.30;3.88;;;1.40;53.50;;;;;;4997638;28;46665;-83
2023/10/16 06:16:18;;;;;;;5.55;2.90;;;1.20;52.20;;;;;;5003797;28;46428;-80
2023/10/16 06:18:45;;;;;;;5.37;3.43;;;1.30;52.20;;;;;;5000870;28;49036;-79
2023/10/16 06:21:14;;;;;;;7.10;3.33;;;1.30;52.00;;;;;;4997939;28;46567;-81
2023/10/16 06:23:46;;;;;;;10.10;4.13;;;1.40;51.90;;;;;;4998365;28;46388;-80
2023/10/16 06:26:14;;;;;;;5.85;3.92;;;1.50;53.00;;;;;;5002167;28;47200;-79
2023/10/16 06:28:47;;;;;;;7.43;4.05;;;1.60;51.50;;;;;;4999673;28;46871;-81
2023/10/16 06:31:22;;;;;;;10.65;5.03;;;1.70;51.40;;;;;;4998785;28;46373;-81
2023/10/16 06:33:58;;;;;;;6.93;4.25;;;1.90;51.20;;;;;;4992311;28;46580;-80
2023/10/16 06:36:25;;;;;;;13.70;5.10;;;1.90;50.90;;;;;;5002059;28;46652;-79
2023/10/16 06:38:53;;;;;;;7.47;4.35;;;2.00;50.70;;;;;;5001637;28;46802;-80
2023/10/16 06:41:20;;;;;;;9.27;4.85;;;2.10;50.70;;;;;;5000045;28;46380;-80
2023/10/16 06:43:49;;;;;;;6.93;4.60;;;2.20;50.50;;;;;;5001161;28;46558;-81
2023/10/16 06:46:22;;;;;;;5.53;3.72;;;2.30;50.50;;;;;;5003328;28;46528;-81
2023/10/16 06:48:52;;;;;;;4.75;3.47;;;2.40;50.40;;;;;;5000963;28;46536;-81
2023/10/16 06:51:18;;;;;;;8.75;4.55;;;2.50;50.40;;;;;;5002181;28;46360;-82
2023/10/16 06:53:44;;;;;;;4.45;2.40;;;2.60;50.40;;;;;;4998562;28;46610;-80
2023/10/16 06:56:14;;;;;;;6.50;2.88;;;2.70;50.40;;;;;;5000901;28;46434;-81
2023/10/16 06:58:40;;;;;;;6.78;2.90;;;2.70;50.40;;;;;;4995312;28;49105;-80
2023/10/16 07:01:06;;;;;;;5.25;3.13;;;2.80;50.50;;;;;;4998234;28;46459;-83
2023/10/16 07:03:33;;;;;;;5.45;3.40;;;2.90;50.50;;;;;;4999907;28;46721;-83
2023/10/16 07:05:59;;;;;;;8.03;3.83;;;3.00;50.20;;;;;;4997205;28;46494;-81
2023/10/16 07:08:25;;;;;;;7.10;3.72;;;3.10;49.90;;;;;;4998228;28;48251;-79
2023/10/16 07:11:03;;;;;;;5.63;3.40;;;3.30;49.60;;;;;;4999703;28;46451;-81
2023/10/16 07:13:31;;;;;;;7.03;3.58;;;3.60;49.40;;;;;;5000868;28;46463;-80
2023/10/16 07:16:04;;;;;;;9.07;4.13;;;3.50;48.90;;;;;;5000835;28;45846;-80
2023/10/16 07:18:33;;;;;;;9.07;4.25;;;3.60;48.80;;;;;;4999476;28;47128;-80
2023/10/16 07:21:07;;;;;;;9.15;5.57;;;3.80;48.70;;;;;;4997737;28;46774;-82
2023/10/16 07:23:37;;;;;;;11.03;4.80;;;3.90;48.30;;;;;;4999966;28;46537;-81
2023/10/16 07:26:08;;;;;;;10.97;5.27;;;4.10;48.30;;;;;;4998552;28;46478;-79
2023/10/16 07:28:34;;;;;;;7.80;5.27;;;4.20;48.20;;;;;;5000859;28;46545;-79
2023/10/16 07:31:02;;;;;;;6.47;4.73;;;4.40;47.90;;;;;;4998317;28;46357;-79
2023/10/16 07:33:28;;;;;;;8.70;4.80;;;4.60;48.00;;;;;;4999702;28;46990;-80
2023/10/16 07:35:57;;;;;;;9.03;5.30;;;4.70;48.10;;;;;;4997530;28;46560;-83
2023/10/16 07:38:25;;;;;;;8.37;4.90;;;4.80;48.20;;;;;;5000402;28;47003;-76
2023/10/16 07:40:57;;;;;;;10.43;5.13;;;4.90;48.30;;;;;;4999821;28;46478;-78
2023/10/16 07:43:27;;;;;;;11.10;5.50;;;4.90;48.30;;;;;;5001990;28;46471;-80
2023/10/16 07:45:53;;;;;;;9.73;5.50;;;4.90;48.80;;;;;;5001095;28;47300;-80
2023/10/16 07:48:21;;;;;;;7.13;4.60;;;4.90;49.50;;;;;;4997659;28;48646;-78
2023/10/16 07:50:50;;;;;;;8.60;4.93;;;5.00;49.80;;;;;;4999077;28;46750;-79
2023/10/16 07:53:19;;;;;;;10.53;5.03;;;5.10;49.70;;;;;;4998535;28;46944;-79
2023/10/16 07:55:52;;;;;;;10.10;5.10;;;5.50;49.50;;;;;;4997625;28;46575;-80
2023/10/16 07:58:23;;;;;;;7.70;4.37;;;5.50;48.80;;;;;;4999673;28;48931;-82
2023/10/16 08:01:32;;;;;;;6.27;4.37;;;5.70;48.90;;;;;;4998666;28;46401;-82
2023/10/16 08:03:48;;;;;;;7.50;4.17;;;5.90;49.10;;;;;;4998117;28;46514;-79
2023/10/16 08:06:23;;;;;;;7.10;4.27;;;6.10;49.20;;;;;;4996194;28;46448;-79
2023/10/16 08:08:49;;;;;;;6.93;4.90;;;6.30;49.40;;;;;;4997228;28;47001;-78
2023/10/16 09:04:42;;;;;;;5.33;4.13;;;7.60;52.10;;;;;;5068331;27;46404;-68
2023/10/16 09:07:11;;;;;;;7.97;4.50;;;7.70;52.20;;;;;;5051959;28;46397;-70
2023/10/16 09:09:41;;;;;;;6.13;4.10;;;7.90;51.30;;;;;;5055521;28;46441;-67
2023/10/16 09:12:10;;;;;;;9.70;4.80;;;8.00;51.00;;;;;;5055196;28;46539;-67
2023/10/16 09:14:40;;;;;;;9.33;4.87;;;8.20;49.70;;;;;;5054307;28;46509;-69
2023/10/16 09:17:07;;;;;;;9.23;5.17;;;8.20;48.90;;;;;;5037525;28;46439;-68
2023/10/16 09:19:45;;;;;;;8.77;4.47;;;8.50;48.40;;;;;;5057379;28;46390;-69
2023/10/16 09:22:13;;;;;;;9.17;4.27;;;8.50;47.70;;;;;;5057851;28;46465;-71
2023/10/16 09:24:43;;;;;;;7.17;4.50;;;8.40;47.30;;;;;;5057261;28;47229;-70
2023/10/16 09:27:17;;;;;;;6.80;4.23;;;8.50;47.00;;;;;;5056068;28;46615;-69
2023/10/16 09:29:53;;;;;;;10.97;3.80;;;8.70;46.70;;;;;;5055721;28;46545;-69
2023/10/16 09:32:26;;;;;;;10.50;4.20;;;8.70;45.50;;;;;;5054695;28;46520;-70
2023/10/16 09:34:53;;;;;;;8.67;4.50;;;8.90;45.30;;;;;;5054447;28;46587;-69
2023/10/16 09:37:24;;;;;;;7.00;4.63;;;8.90;45.20;;;;;;5052298;28;46742;-71
2023/10/16 09:39:52;;;;;;;7.37;4.30;;;8.90;45.00;;;;;;5056913;28;46479;-71
2023/10/16 09:42:24;;;;;;;8.57;4.40;;;9.00;44.70;;;;;;5055858;28;46369;-71
2023/10/16 09:44:59;;;;;;;6.87;4.27;;;9.00;44.40;;;;;;5049790;28;47026;-71
2023/10/16 09:47:26;;;;;;;5.53;3.80;;;9.00;44.50;;;;;;5051982;28;46473;-70
2023/10/16 09:50:00;;;;;;;12.53;4.80;;;9.00;43.80;;;;;;5055655;28;46642;-70
2023/10/16 09:52:31;;;;;;;7.10;4.30;;;9.00;43.50;;;;;;5034323;28;46446;-70
2023/10/16 09:54:59;;;;;;;9.73;3.87;;;9.10;42.80;;;;;;5053794;28;47313;-69
2023/10/16 09:57:30;;;;;;;8.17;3.73;;;9.20;41.90;;;;;;5053520;28;46323;-70
2023/10/16 10:02:42;;;;;;;6.27;3.40;;;9.40;40.40;;;;;;5051389;28;46569;-68
2023/10/16 10:05:09;;;;;;;9.37;3.87;;;9.50;39.00;;;;;;5025174;28;46946;-69
2023/10/16 10:07:46;;;;;;;7.33;4.27;;;9.60;39.00;;;;;;5039776;28;46523;-70
2023/10/16 10:13:24;;;;;;;6.73;3.40;;;9.60;39.00;;;;;;5040990;28;46502;-70
2023/10/16 10:15:57;;;;;;;5.97;3.30;;;9.80;39.20;;;;;;5041241;28;46310;-69
2023/10/16 10:18:42;;;;;;;7.83;3.10;;;9.80;39.10;;;;;;5021125;28;46797;-72
2023/10/16 10:21:18;;;;;;;7.13;3.37;;;9.90;37.10;;;;;;5043725;28;46433;-70
2023/10/16 10:23:47;;;;;;;7.00;3.20;;;9.90;36.90;;;;;;5042464;28;46377;-72
2023/10/16 10:26:18;;;;;;;7.53;3.63;;;10.10;35.20;;;;;;5041873;28;47305;-72
2023/10/16 10:28:45;;;;;;;5.73;3.10;;;10.10;34.10;;;;;;5038828;28;46534;-72
2023/10/16 10:31:15;;;;;;;7.13;3.70;;;10.30;33.80;;;;;;5038976;28;46520;-71
2023/10/16 10:33:51;;;;;;;7.10;3.13;;;10.60;32.50;;;;;;5039696;28;46446;-71
2023/10/16 10:36:34;;;;;;;9.10;3.33;;;10.70;32.70;;;;;;5041552;28;46784;-71
2023/10/16 10:39:21;;;;;;;8.70;3.57;;;10.80;32.00;;;;;;5039484;28;46416;-70
2023/10/16 10:42:03;;;;;;;6.60;3.17;;;10.80;31.60;;;;;;5038947;28;46426;-70
2023/10/16 10:44:44;;;;;;;6.07;3.30;;;10.60;31.30;;;;;;5041997;28;46404;-70
2023/10/16 10:47:32;;;;;;;8.63;3.50;;;10.40;31.20;;;;;;5042636;28;47918;-68
2023/10/16 10:50:00;;;;;;;6.47;3.47;;;10.50;30.70;;;;;;5042705;28;46355;-69
2023/10/16 10:52:34;;;;;;;5.23;3.50;;;10.60;30.00;;;;;;5042874;28;46409;-69
2023/10/16 10:55:07;;;;;;;6.10;3.13;;;10.60;30.10;;;;;;5042621;28;46517;-69
2023/10/16 10:57:34;;;;;;;6.87;2.73;;;10.60;29.90;;;;;;5041769;28;46787;-69
2023/10/16 11:00:22;;;;;;;4.50;3.10;;;10.70;29.50;;;;;;5040443;28;46540;-76
2023/10/16 11:02:52;;;;;;;10.80;3.90;;;10.70;28.80;;;;;;5039881;28;46683;-69
2023/10/16 11:05:24;;;;;;;5.83;3.17;;;10.60;28.90;;;;;;5041437;28;46299;-69
2023/10/16 11:10:42;;;;;;;5.70;3.00;;;10.50;29.20;;;;;;5036580;28;46596;-69
2023/10/16 11:13:09;;;;;;;10.00;3.47;;;10.40;29.50;;;;;;5040129;28;45928;-69
2023/10/16 11:15:35;;;;;;;14.87;4.23;;;10.30;29.50;;;;;;5040830;28;46331;-70
2023/10/16 11:18:11;;;;;;;12.90;3.07;;;10.30;29.50;;;;;;5042229;28;46583;-68
2023/10/16 11:20:38;;;;;;;7.60;3.43;;;10.30;29.20;;;;;;5040561;28;46349;-69
2023/10/16 11:23:13;;;;;;;5.80;3.20;;;10.20;29.50;;;;;;5041002;28;46684;-69
2023/10/16 11:25:50;;;;;;;6.77;3.20;;;10.30;28.20;;;;;;5042216;28;46394;-69
2023/10/16 11:28:28;;;;;;;5.03;3.13;;;10.30;27.60;;;;;;5039316;28;46982;-69
2023/10/16 11:30:57;;;;;;;4.60;2.90;;;10.30;27.60;;;;;;5039068;28;45868;-69
2023/10/16 11:33:54;;;;;;;9.03;3.10;;;10.40;27.70;;;;;;5039434;28;45833;-69
2023/10/16 11:36:23;;;;;;;5.97;3.20;;;10.50;27.60;;;;;;5040735;28;46536;-69
2023/10/16 11:38:51;;;;;;;7.83;4.20;;;10.50;27.50;;;;;;5040378;28;46655;-69
2023/10/16 11:41:19;;;;;;;5.80;2.37;;;10.50;27.50;;;;;;5039705;28;46553;-69
2023/10/16 11:43:51;;;;;;;7.93;3.23;;;10.60;26.50;;;;;;5040250;28;46538;-69
2023/10/16 11:46:39;;;;;;;6.80;3.30;;;10.50;26.50;;;;;;5039004;28;46402;-69
2023/10/16 11:51:52;;;;;;;4.40;2.70;;;10.50;26.50;;;;;;5037949;28;46356;-69
2023/10/16 11:54:23;;;;;;;5.30;2.53;;;10.60;26.50;;;;;;5039597;28;46407;-70
2023/10/16 11:56:55;;;;;;;7.10;2.93;;;10.60;26.50;;;;;;5038038;28;46554;-69
2023/10/16 11:59:22;;;;;;;8.40;3.73;;;10.60;26.50;;;;;;5039317;28;46396;-69
2023/10/16 12:01:51;;;;;;;8.50;3.40;;;10.60;26.50;;;;;;5035004;28;46888;-70
2023/10/16 12:04:19;;;;;;;4.77;3.20;;;10.40;26.40;;;;;;5020906;28;45908;-68
2023/10/16 12:06:48;;;;;;;8.53;3.40;;;10.40;26.40;;;;;;5040765;28;46370;-69
2023/10/16 12:09:19;;;;;;;5.90;2.97;;;10.50;26.50;;;;;;5038114;28;46312;-68
2023/10/16 12:11:49;;;;;;;4.60;2.90;;;10.60;26.50;;;;;;5039752;28;46453;-69
2023/10/16 12:14:15;;;;;;;6.33;3.10;;;10.60;26.20;;;;;;5038981;28;46426;-69
2023/10/16 12:16:44;;;;;;;6.03;3.00;;;10.60;26.10;;;;;;5040852;28;46657;-69
2023/10/16 12:19:11;;;;;;;7.60;2.70;;;10.60;26.30;;;;;;5041975;28;47237;-69
2023/10/16 12:21:37;;;;;;;7.20;2.87;;;10.50;25.40;;;;;;5037627;28;46462;-68
2023/10/16 12:24:04;;;;;;;7.97;3.17;;;10.50;25.60;;;;;;5038821;28;46693;-69
2023/10/16 12:26:30;;;;;;;3.87;2.23;;;10.60;25.40;;;;;;5040600;28;45866;-69
2023/10/16 12:28:59;;;;;;;8.23;3.37;;;10.70;24.90;;;;;;5041543;28;47320;-69
2023/10/16 12:31:26;;;;;;;4.10;2.30;;;10.70;24.50;;;;;;5040542;28;46492;-69
2023/10/16 12:33:52;;;;;;;4.70;2.57;;;10.80;24.30;;;;;;5039832;28;46449;-70
2023/10/16 12:36:18;;;;;;;7.60;3.20;;;10.80;23.90;;;;;;5039552;28;46488;-70
2023/10/16 12:38:44;;;;;;;6.93;2.93;;;10.70;23.90;;;;;;5039033;28;47293;-70
2023/10/16 12:41:10;;;;;;;6.10;3.17;;;10.80;23.70;;;;;;5040175;28;46513;-70
2023/10/16 12:43:36;;;;;;;6.20;3.20;;;10.80;23.90;;;;;;5037371;28;45853;-69
2023/10/16 12:46:03;;;;;;;6.33;2.27;;;10.90;23.70;;;;;;5036405;28;46468;-69
2023/10/16 12:48:29;;;;;;;4.43;2.00;;;10.90;22.90;;;;;;5039545;28;46456;-70
2023/10/16 12:51:03;;;;;;;4.90;2.60;;;10.90;23.60;;;;;;5040017;28;46423;-70
2023/10/16 12:53:29;;;;;;;3.47;2.43;;;10.90;22.20;;;;;;5035638;28;46461;-69
2023/10/16 12:55:55;;;;;;;4.63;2.40;;;10.90;22.20;;;;;;5041601;28;47567;-69
2023/10/16 12:58:24;;;;;;;4.50;2.47;;;10.90;21.70;;;;;;5038658;28;46620;-69
2023/10/16 13:00:52;;;;;;;6.30;3.27;;;11.00;21.80;;;;;;5037042;28;46517;-69
2023/10/16 13:03:20;;;;;;;4.00;2.60;;;11.00;21.90;;;;;;5041748;28;45882;-68
2023/10/16 13:05:48;;;;;;;4.97;2.50;;;11.00;21.90;;;;;;5038521;28;46531;-68
2023/10/16 13:08:17;;;;;;;8.03;3.07;;;11.10;22.10;;;;;;5037581;28;46718;-69
2023/10/16 13:10:43;;;;;;;5.10;2.80;;;11.10;21.50;;;;;;5041075;28;46831;-69
2023/10/16 13:13:09;;;;;;;6.80;3.00;;;11.10;20.90;;;;;;5046537;28;46521;-69
2023/10/16 13:15:35;;;;;;;4.20;2.80;;;11.10;21.10;;;;;;5041246;28;46599;-69
2023/10/16 13:18:01;;;;;;;5.97;2.63;;;11.10;21.10;;;;;;5038086;28;47953;-69
2023/10/16 13:20:27;;;;;;;4.53;2.60;;;11.10;21.10;;;;;;5022782;28;46573;-69
2023/10/16 13:22:54;;;;;;;5.83;2.83;;;11.10;21.30;;;;;;5038457;28;45908;-69
2023/10/16 13:25:25;;;;;;;5.10;2.40;;;11.10;21.00;;;;;;5039364;28;46562;-70
2023/10/16 13:27:51;;;;;;;4.60;2.57;;;11.20;20.50;;;;;;5038160;28;47462;-69
2023/10/16 13:30:18;;;;;;;4.70;2.90;;;11.00;20.10;;;;;;5039464;28;46686;-69
2023/10/16 13:32:46;;;;;;;9.03;2.87;;;11.00;20.50;;;;;;5041964;28;46702;-69
2023/10/16 13:35:16;;;;;;;5.30;2.70;;;11.00;20.40;;;;;;5039437;28;46518;-68
2023/10/16 13:37:43;;;;;;;7.90;3.30;;;11.10;20.10;;;;;;5036612;28;47216;-69
2023/10/16 13:40:22;;;;;;;6.43;3.13;;;11.00;20.00;;;;;;5041493;28;46478;-68
2023/10/16 13:42:51;;;;;;;7.03;3.53;;;11.00;20.30;;;;;;5042163;28;46696;-70
2023/10/16 13:45:18;;;;;;;6.00;3.63;;;11.00;20.50;;;;;;5042277;28;46504;-69
2023/10/16 13:47:45;;;;;;;7.30;3.37;;;11.00;20.50;;;;;;5043303;28;47982;-68
2023/10/16 13:50:15;;;;;;;5.60;3.67;;;11.00;20.30;;;;;;5039028;28;46624;-68
2023/10/16 13:52:44;;;;;;;6.10;3.30;;;11.00;20.60;;;;;;5042679;28;46352;-69
2023/10/16 13:55:12;;;;;;;6.20;3.43;;;11.00;20.60;;;;;;5042988;28;46509;-69
2023/10/16 13:57:42;;;;;;;7.97;4.20;;;11.00;20.60;;;;;;5040046;28;46665;-69
2023/10/16 14:00:31;;;;;;;5.13;3.13;;;11.00;20.50;;;;;;5040082;28;46434;-68
2023/10/16 14:03:17;;;;;;;5.63;3.40;;;11.00;20.70;;;;;;5041567;28;46623;-69
2023/10/16 14:05:47;;;;;;;4.53;3.20;;;11.00;20.60;;;;;;5042766;28;46431;-69
2023/10/16 14:08:14;;;;;;;5.60;3.70;;;10.90;20.70;;;;;;5041875;28;46351;-69
2023/10/16 14:10:52;;;;;;;8.77;3.67;;;10.90;20.70;;;;;;5043454;28;45908;-69
2023/10/16 14:13:21;;;;;;;4.97;3.10;;;10.90;20.60;;;;;;5040636;28;46731;-69
2023/10/16 14:15:50;;;;;;;5.73;3.40;;;10.90;20.70;;;;;;5042195;28;46506;-68
2023/10/16 14:18:26;;;;;;;4.90;3.20;;;10.90;20.50;;;;;;5043679;28;47401;-69
2023/10/16 14:20:53;;;;;;;6.20;3.50;;;10.90;20.50;;;;;;5041917;28;46391;-72
2023/10/16 14:23:19;;;;;;;5.50;2.90;;;10.90;20.50;;;;;;5037947;28;46471;-69
2023/10/16 14:25:48;;;;;;;7.07;3.70;;;10.80;20.30;;;;;;5042193;28;46770;-69
2023/10/16 14:31:08;;;;;;;7.13;3.73;;;10.90;20.70;;;;;;5035336;28;46461;-70
2023/10/16 14:33:36;;;;;;;9.13;3.87;;;10.90;20.70;;;;;;5040949;28;46377;-70
2023/10/16 14:36:05;;;;;;;5.67;3.93;;;10.90;20.80;;;;;;5043422;28;46577;-70
2023/10/16 14:38:30;;;;;;;6.57;4.43;;;10.80;20.90;;;;;;5041343;28;48009;-70
2023/10/16 14:41:04;;;;;;;5.80;3.60;;;10.80;21.00;;;;;;5040395;28;46359;-69
2023/10/16 14:43:34;;;;;;;6.37;3.50;;;10.70;21.10;;;;;;5040337;28;47875;-70
2023/10/16 14:46:07;;;;;;;7.07;3.43;;;10.70;21.20;;;;;;5041141;28;46473;-69
2023/10/16 14:48:33;;;;;;;5.10;3.10;;;10.60;21.10;;;;;;5042945;28;46662;-70
2023/10/16 14:51:00;;;;;;;6.47;3.70;;;10.60;20.80;;;;;;5037702;28;45793;-70
2023/10/16 14:53:28;;;;;;;16.57;8.13;;;10.60;20.90;;;;;;5023319;28;46445;-69
2023/10/16 14:55:54;;;;;;;13.80;7.47;;;10.60;21.00;;;;;;5043084;28;46190;-69
2023/10/16 14:58:20;;;;;;;5.67;4.07;;;10.50;21.20;;;;;;5043818;28;47342;-69
2023/10/16 15:00:50;;;;;;;9.13;3.70;;;10.50;21.20;;;;;;5043422;28;46444;-69
2023/10/16 15:03:16;;;;;;;6.33;3.20;;;10.50;21.20;;;;;;5040567;28;46701;-69
2023/10/16 15:05:46;;;;;;;6.03;3.43;;;10.40;21.20;;;;;;5041171;28;46490;-69
2023/10/16 15:08:13;;;;;;;7.80;3.07;;;10.40;21.20;;;;;;5041567;28;47107;-69
2023/10/16 15:10:43;;;;;;;5.83;3.27;;;10.40;21.30;;;;;;5043181;28;45806;-70
2023/10/16 15:13:14;;;;;;;7.47;3.63;;;10.30;21.40;;;;;;5043357;28;46425;-70
2023/10/16 15:15:44;;;;;;;7.70;3.60;;;10.30;21.60;;;;;;5042300;28;46322;-70
2023/10/16 15:18:12;;;;;;;6.80;4.00;;;10.30;21.60;;;;;;5043910;28;46419;-69
2023/10/16 15:20:39;;;;;;;6.80;3.53;;;10.20;21.60;;;;;;5043998;28;46309;-69
2023/10/16 15:23:14;;;;;;;9.00;3.70;;;10.20;21.80;;;;;;5042056;28;46374;-69
2023/10/16 15:25:41;;;;;;;7.60;4.30;;;10.20;21.90;;;;;;5043282;28;46406;-69
2023/10/16 15:28:10;;;;;;;6.13;3.80;;;10.20;22.00;;;;;;5044340;28;46705;-71
2023/10/16 15:30:38;;;;;;;11.20;4.30;;;10.10;22.10;;;;;;5042466;28;46372;-69
2023/10/16 15:33:06;;;;;;;5.97;4.00;;;10.00;22.30;;;;;;5041289;28;46389;-68
2023/10/16 15:35:32;;;;;;;8.40;4.03;;;10.00;22.30;;;;;;5043747;28;46599;-69
2023/10/16 15:37:59;;;;;;;6.23;3.60;;;9.90;23.10;;;;;;5043721;28;46501;-71
2023/10/16 15:40:28;;;;;;;6.20;3.87;;;9.90;23.30;;;;;;5041582;28;46489;-68
2023/10/16 15:42:59;;;;;;;5.93;3.30;;;9.80;23.60;;;;;;5045536;28;46523;-68
2023/10/16 15:45:25;;;;;;;11.93;3.40;;;9.70;23.70;;;;;;5019217;28;46435;-69
2023/10/16 15:47:53;;;;;;;6.57;3.83;;;9.60;23.80;;;;;;5041836;28;46367;-69
2023/10/16 15:50:19;;;;;;;9.17;3.90;;;9.60;24.00;;;;;;5041673;28;46350;-69
2023/10/16 15:52:44;;;;;;;8.33;3.90;;;9.50;24.10;;;;;;5042025;28;46544;-69
2023/10/16 15:55:10;;;;;;;4.90;4.00;;;9.50;24.40;;;;;;5039353;28;46466;-69
2023/10/16 15:57:36;;;;;;;9.23;3.60;;;9.40;24.80;;;;;;5041655;28;46414;-69
2023/10/16 16:00:06;;;;;;;6.90;3.60;;;9.30;24.80;;;;;;5042436;28;46492;-68
2023/10/16 16:02:35;;;;;;;5.90;4.10;;;9.20;25.20;;;;;;5039812;28;46385;-69
2023/10/16 16:05:01;;;;;;;5.67;3.60;;;9.10;25.40;;;;;;5043291;28;46452;-70
2023/10/16 16:07:28;;;;;;;5.37;3.60;;;9.10;25.60;;;;;;5043450;28;46438;-69
2023/10/16 16:09:57;;;;;;;6.40;4.07;;;9.00;26.10;;;;;;5046616;28;46673;-69